Time;durP1;ratioP1;P1;durP2;ratioP2;P2;SDS_P1;SDS_P2;PMS_P1;PMS_P2;Temp;Humidity;BMP_temperature;BMP_pressure;BME280_temperature;BME280_humidity;BME280_pressure;Samples;Min_cycle;Max_cycle;Signal;HPM_P1;HPM_P2
2023/08/29 00:01:02;;;;;;;4.53;2.67;;;12.70;99.90;;;;;;5039778;28;20045;-72
2023/08/29 00:03:28;;;;;;;3.28;2.58;;;12.60;99.90;;;;;;5041843;28;20060;-72
2023/08/29 00:06:04;;;;;;;3.90;2.28;;;12.70;99.90;;;;;;5058388;28;20055;-71
2023/08/29 00:08:32;;;;;;;4.32;2.28;;;12.70;99.90;;;;;;5057628;28;20111;-72
2023/08/29 00:10:58;;;;;;;3.63;2.28;;;12.70;99.90;;;;;;5058670;28;20055;-72
2023/08/29 00:13:25;;;;;;;2.20;2.00;;;12.80;99.90;;;;;;5085368;28;20407;-71
2023/08/29 00:15:51;;;;;;;4.32;2.15;;;12.80;99.90;;;;;;5046156;28;20062;-72
2023/08/29 00:18:21;;;;;;;3.63;2.00;;;12.80;99.90;;;;;;5058188;28;20055;-71
2023/08/29 00:20:48;;;;;;;4.65;1.95;;;12.80;99.90;;;;;;5057779;28;20531;-71
2023/08/29 00:23:14;;;;;;;2.90;2.35;;;12.80;99.90;;;;;;5059763;28;20472;-71
2023/08/29 00:25:39;;;;;;;4.80;2.40;;;12.80;99.90;;;;;;5040366;28;20040;-71
2023/08/29 00:28:06;;;;;;;6.40;2.78;;;12.80;99.90;;;;;;5060769;28;20394;-71
2023/08/29 00:30:39;;;;;;;3.92;2.22;;;12.90;99.90;;;;;;5023685;28;20059;-71
2023/08/29 00:33:05;;;;;;;2.63;2.13;;;12.80;99.90;;;;;;5028486;28;20036;-71
2023/08/29 00:35:31;;;;;;;3.55;2.15;;;12.80;99.90;;;;;;5056492;28;20041;-71
2023/08/29 00:37:58;;;;;;;3.30;2.10;;;12.80;99.90;;;;;;5059112;28;20048;-71
2023/08/29 00:40:33;;;;;;;4.88;2.35;;;12.80;99.90;;;;;;5076066;28;20086;-71
2023/08/29 00:42:59;;;;;;;3.63;2.65;;;12.70;99.90;;;;;;5038842;28;20028;-71
2023/08/29 00:45:30;;;;;;;4.05;2.30;;;12.70;99.90;;;;;;5058959;28;20047;-71
2023/08/29 00:47:56;;;;;;;4.07;2.40;;;12.70;99.90;;;;;;5074171;28;20169;-71
2023/08/29 00:50:23;;;;;;;3.50;2.22;;;12.70;99.90;;;;;;5041631;28;20275;-72
2023/08/29 00:52:49;;;;;;;4.07;2.83;;;12.70;99.90;;;;;;5052255;28;20080;-72
2023/08/29 00:55:15;;;;;;;3.58;2.28;;;12.70;99.90;;;;;;5028310;28;20044;-72
2023/08/29 00:57:41;;;;;;;3.80;2.10;;;12.70;99.90;;;;;;5043073;28;20395;-72
2023/08/29 01:00:08;;;;;;;4.13;2.10;;;12.60;99.90;;;;;;5038987;28;20074;-72
2023/08/29 01:02:33;;;;;;;3.30;2.15;;;12.60;99.90;;;;;;5041958;28;20055;-72
2023/08/29 01:04:59;;;;;;;3.17;2.10;;;12.60;99.90;;;;;;5056812;28;20041;-72
2023/08/29 01:07:25;;;;;;;2.35;1.85;;;12.60;99.90;;;;;;5074583;28;20087;-72
2023/08/29 01:09:50;;;;;;;2.15;1.95;;;12.50;99.90;;;;;;5029427;28;20041;-72
2023/08/29 01:12:18;;;;;;;3.28;2.05;;;12.40;99.90;;;;;;5040884;28;20624;-72
2023/08/29 01:15:03;;;;;;;2.65;2.08;;;12.30;99.90;;;;;;5061177;28;20355;-72
2023/08/29 01:17:37;;;;;;;6.90;2.22;;;12.20;99.90;;;;;;5039017;28;20087;-72
2023/08/29 01:20:05;;;;;;;3.40;2.70;;;12.10;99.90;;;;;;5060004;28;20041;-72
2023/08/29 01:22:33;;;;;;;3.63;2.40;;;12.10;99.90;;;;;;5073119;28;20481;-71
2023/08/29 01:25:23;;;;;;;2.65;2.33;;;12.10;99.90;;;;;;5042186;28;20075;-72
2023/08/29 01:27:49;;;;;;;3.97;1.90;;;12.10;99.90;;;;;;5075969;28;20136;-71
2023/08/29 01:30:15;;;;;;;4.55;2.38;;;12.10;99.90;;;;;;5021210;28;20036;-72
2023/08/29 01:32:41;;;;;;;5.93;2.75;;;12.20;99.90;;;;;;5063564;28;20445;-72
2023/08/29 01:35:09;;;;;;;4.50;1.95;;;12.20;99.90;;;;;;5029302;28;20104;-72
2023/08/29 01:37:34;;;;;;;4.97;2.40;;;12.10;99.90;;;;;;5041566;28;20060;-72
2023/08/29 01:40:00;;;;;;;3.88;2.20;;;12.10;99.90;;;;;;5024821;28;20044;-71
2023/08/29 01:42:26;;;;;;;6.47;2.65;;;12.10;99.90;;;;;;5022224;28;20048;-72
2023/08/29 01:44:52;;;;;;;6.28;2.38;;;12.10;99.90;;;;;;5044233;28;20470;-72
2023/08/29 01:47:17;;;;;;;4.47;2.88;;;12.10;99.90;;;;;;5038682;28;20067;-72
2023/08/29 01:49:44;;;;;;;3.30;2.50;;;12.10;99.90;;;;;;5008569;28;20055;-71
2023/08/29 01:52:09;;;;;;;4.68;2.22;;;12.10;99.90;;;;;;5055680;28;20059;-72
2023/08/29 01:54:35;;;;;;;5.32;2.30;;;12.10;99.90;;;;;;5061242;28;20041;-72
2023/08/29 01:57:03;;;;;;;2.08;1.80;;;12.10;99.90;;;;;;5040170;28;20679;-72
2023/08/29 01:59:30;;;;;;;2.10;1.90;;;12.10;99.90;;;;;;5073107;28;20040;-72
2023/08/29 02:01:57;;;;;;;3.40;2.10;;;12.10;99.90;;;;;;5057950;28;20032;-72
2023/08/29 02:04:23;;;;;;;2.67;1.92;;;12.10;99.90;;;;;;5055097;28;20503;-73
2023/08/29 02:06:49;;;;;;;2.35;1.70;;;12.00;99.90;;;;;;5024494;28;20059;-72
2023/08/29 02:09:16;;;;;;;4.90;2.20;;;11.90;99.90;;;;;;5041448;28;20076;-72
2023/08/29 02:11:41;;;;;;;6.00;2.45;;;11.90;99.90;;;;;;5058314;28;20120;-72
2023/08/29 02:14:09;;;;;;;3.97;2.20;;;11.80;99.90;;;;;;5063343;28;20083;-72
2023/08/29 02:16:35;;;;;;;2.63;2.42;;;11.70;99.90;;;;;;5039569;28;20092;-72
2023/08/29 02:19:02;;;;;;;5.95;2.70;;;11.70;99.90;;;;;;5042581;28;20079;-72
2023/08/29 02:21:28;;;;;;;2.60;2.40;;;11.70;99.90;;;;;;5054037;28;20127;-72
2023/08/29 02:23:53;;;;;;;6.85;2.85;;;11.60;99.90;;;;;;5055717;28;20202;-72
2023/08/29 02:26:19;;;;;;;3.33;2.38;;;11.60;99.90;;;;;;5040962;28;20044;-72
2023/08/29 02:28:45;;;;;;;2.47;2.28;;;11.70;99.90;;;;;;5041039;28;20033;-72
2023/08/29 02:31:10;;;;;;;3.67;2.30;;;11.60;99.90;;;;;;5054426;28;20138;-72
2023/08/29 02:33:38;;;;;;;3.17;2.50;;;11.60;99.90;;;;;;5038309;28;20059;-72
2023/08/29 02:36:05;;;;;;;3.28;2.58;;;11.60;99.90;;;;;;5056810;28;20055;-72
2023/08/29 02:38:31;;;;;;;3.67;2.35;;;11.50;99.90;;;;;;5055173;28;20577;-72
2023/08/29 02:40:57;;;;;;;3.20;2.40;;;11.60;99.90;;;;;;5039233;28;20037;-72
2023/08/29 02:43:23;;;;;;;6.13;3.10;;;11.60;99.90;;;;;;5038410;28;20049;-72
2023/08/29 02:45:52;;;;;;;4.20;2.35;;;11.50;99.90;;;;;;5039103;28;20045;-72
2023/08/29 02:48:17;;;;;;;2.75;1.83;;;11.50;99.90;;;;;;5038388;28;20453;-72
2023/08/29 02:50:45;;;;;;;2.78;2.20;;;11.50;99.90;;;;;;5056997;28;20072;-72
2023/08/29 02:53:11;;;;;;;2.67;2.20;;;11.50;99.90;;;;;;5055776;28;20045;-72
2023/08/29 02:55:36;;;;;;;3.85;2.40;;;11.50;99.90;;;;;;5039161;28;20041;-72
2023/08/29 02:58:02;;;;;;;4.50;2.63;;;11.40;99.90;;;;;;5045600;28;20063;-72
2023/08/29 03:00:29;;;;;;;3.80;2.30;;;11.40;99.90;;;;;;5037529;28;20045;-72
2023/08/29 03:02:55;;;;;;;4.75;2.60;;;11.30;99.90;;;;;;5022445;28;20063;-72
2023/08/29 03:05:21;;;;;;;3.38;2.10;;;11.30;99.90;;;;;;5039264;28;20053;-72
2023/08/29 03:07:47;;;;;;;3.55;2.33;;;11.30;99.90;;;;;;5039261;28;20055;-72
2023/08/29 03:10:13;;;;;;;3.25;2.20;;;11.30;99.90;;;;;;5022358;28;20041;-72
2023/08/29 03:12:38;;;;;;;3.47;2.60;;;11.30;99.90;;;;;;5002423;28;20517;-72
2023/08/29 03:15:04;;;;;;;5.03;2.45;;;11.30;99.90;;;;;;5034374;28;20064;-72
2023/08/29 03:17:30;;;;;;;4.38;2.65;;;11.30;99.90;;;;;;5036922;28;20119;-72
2023/08/29 03:19:56;;;;;;;4.70;2.40;;;11.20;99.90;;;;;;5002013;28;20083;-72
2023/08/29 03:22:21;;;;;;;9.43;2.50;;;11.10;99.90;;;;;;5000251;28;20503;-72
2023/08/29 03:24:47;;;;;;;3.40;2.40;;;11.10;99.90;;;;;;5020356;28;20045;-72
2023/08/29 03:27:13;;;;;;;3.72;2.33;;;11.10;99.90;;;;;;5036698;28;20041;-71
2023/08/29 03:29:40;;;;;;;4.03;2.00;;;11.00;99.90;;;;;;5034411;28;20044;-72
2023/08/29 03:32:06;;;;;;;4.70;2.15;;;11.00;99.90;;;;;;5015485;28;20041;-72
2023/08/29 03:34:32;;;;;;;3.10;2.15;;;10.90;99.90;;;;;;5016349;28;20037;-72
2023/08/29 03:36:58;;;;;;;3.30;1.90;;;10.90;99.90;;;;;;5038108;28;20037;-72
2023/08/29 03:39:24;;;;;;;3.80;2.47;;;10.90;99.90;;;;;;5028747;28;20044;-72
2023/08/29 03:41:50;;;;;;;5.28;2.30;;;10.90;99.90;;;;;;5019937;28;20045;-72
2023/08/29 03:44:16;;;;;;;4.47;2.30;;;10.90;99.90;;;;;;5017281;28;20048;-72
2023/08/29 03:46:41;;;;;;;4.13;2.20;;;10.90;99.90;;;;;;5033565;28;20064;-72
2023/08/29 03:49:07;;;;;;;4.85;2.47;;;11.00;99.90;;;;;;5018348;28;20084;-72
2023/08/29 03:51:33;;;;;;;4.47;2.45;;;11.00;99.90;;;;;;5000067;28;20118;-71
2023/08/29 03:53:59;;;;;;;3.88;2.53;;;11.00;99.90;;;;;;5033699;28;20049;-71
2023/08/29 03:56:25;;;;;;;4.28;2.22;;;10.90;99.90;;;;;;5033915;28;20093;-71
2023/08/29 03:58:51;;;;;;;3.25;2.50;;;10.90;99.90;;;;;;5034832;28;20145;-72
2023/08/29 04:01:19;;;;;;;4.15;2.35;;;10.90;99.90;;;;;;5034853;28;20069;-71
2023/08/29 04:03:45;;;;;;;3.63;2.40;;;10.90;99.90;;;;;;5033027;28;20057;-71
2023/08/29 04:06:11;;;;;;;2.67;2.10;;;10.90;99.90;;;;;;5034285;28;20057;-72
2023/08/29 04:08:37;;;;;;;3.30;2.37;;;10.90;99.90;;;;;;5033719;28;20053;-71
2023/08/29 04:11:03;;;;;;;3.22;2.42;;;10.90;99.90;;;;;;5009798;28;20534;-71
2023/08/29 04:13:29;;;;;;;4.18;2.30;;;11.00;99.90;;;;;;5037117;28;20048;-71
2023/08/29 04:16:00;;;;;;;9.25;2.92;;;11.00;99.90;;;;;;5056976;28;20069;-72
2023/08/29 04:18:25;;;;;;;2.53;2.20;;;11.00;99.90;;;;;;5056586;28;20040;-72
2023/08/29 04:20:51;;;;;;;3.70;2.25;;;11.00;99.90;;;;;;5045102;28;20482;-72
2023/08/29 04:23:17;;;;;;;5.43;2.50;;;11.00;99.90;;;;;;5060177;28;20396;-71
2023/08/29 04:25:42;;;;;;;5.30;2.88;;;11.00;99.90;;;;;;5024333;28;20099;-72
2023/08/29 04:28:09;;;;;;;5.38;3.42;;;11.00;99.90;;;;;;5024505;28;20073;-71
2023/08/29 04:30:35;;;;;;;3.15;2.75;;;11.00;99.90;;;;;;5024095;28;20041;-72
2023/08/29 04:33:01;;;;;;;3.03;2.67;;;11.00;99.90;;;;;;5023822;28;20043;-71
2023/08/29 04:35:27;;;;;;;4.50;2.80;;;11.00;99.90;;;;;;5037500;28;20048;-71
2023/08/29 04:37:54;;;;;;;6.07;2.90;;;11.00;99.90;;;;;;5037575;28;20101;-71
2023/08/29 04:40:21;;;;;;;10.55;3.35;;;11.00;99.90;;;;;;5057688;28;20054;-75
2023/08/29 04:42:47;;;;;;;6.45;2.92;;;11.00;99.90;;;;;;5040082;28;20044;-73
2023/08/29 04:45:13;;;;;;;4.72;3.30;;;11.00;99.90;;;;;;5056771;28;20091;-72
2023/08/29 04:47:39;;;;;;;5.10;3.20;;;11.10;99.90;;;;;;5021804;28;20045;-73
2023/08/29 04:50:06;;;;;;;4.10;3.15;;;11.10;99.90;;;;;;5054449;28;20694;-72
2023/08/29 04:52:32;;;;;;;5.95;2.97;;;11.10;99.90;;;;;;5039163;28;20048;-72
2023/08/29 04:54:58;;;;;;;5.25;2.88;;;11.10;99.90;;;;;;5020737;28;20580;-72
2023/08/29 04:57:24;;;;;;;3.83;2.47;;;11.10;99.90;;;;;;5040452;28;20347;-72
2023/08/29 04:59:50;;;;;;;2.53;2.33;;;11.00;99.90;;;;;;5023563;28;20041;-73
2023/08/29 05:02:16;;;;;;;2.40;2.20;;;10.90;99.90;;;;;;5075794;28;20440;-72
2023/08/29 05:04:47;;;;;;;5.72;2.60;;;10.90;99.90;;;;;;5057472;28;20050;-72
2023/08/29 05:07:13;;;;;;;4.63;2.63;;;10.90;99.90;;;;;;5027531;28;20110;-72
2023/08/29 05:09:39;;;;;;;5.18;2.83;;;10.90;99.90;;;;;;5054706;28;20095;-72
2023/08/29 05:12:10;;;;;;;3.90;2.40;;;10.80;99.90;;;;;;5034811;28;20077;-72
2023/08/29 05:14:35;;;;;;;3.50;2.75;;;10.80;99.90;;;;;;5021789;28;20099;-72
2023/08/29 05:17:01;;;;;;;3.22;2.72;;;10.80;99.90;;;;;;5034668;28;20045;-72
2023/08/29 05:19:27;;;;;;;4.72;2.55;;;10.80;99.90;;;;;;5022140;28;20072;-73
2023/08/29 05:21:53;;;;;;;4.47;2.50;;;10.90;99.90;;;;;;5021393;28;20621;-72
2023/08/29 05:24:18;;;;;;;4.95;2.65;;;11.00;99.90;;;;;;5052856;28;20044;-73
2023/08/29 05:26:44;;;;;;;6.05;2.88;;;11.00;99.90;;;;;;5055563;28;20136;-72
2023/08/29 05:29:10;;;;;;;3.95;2.45;;;11.10;99.90;;;;;;5034382;28;20044;-72
2023/08/29 05:31:36;;;;;;;5.32;2.83;;;11.10;99.90;;;;;;5018688;28;20048;-72
2023/08/29 05:34:02;;;;;;;4.80;3.17;;;11.00;99.90;;;;;;5014710;28;20077;-72
2023/08/29 05:36:27;;;;;;;4.68;2.90;;;10.90;99.90;;;;;;5049139;28;20048;-72
2023/08/29 05:38:53;;;;;;;3.53;2.63;;;10.80;99.90;;;;;;5050384;28;20051;-72
2023/08/29 05:41:19;;;;;;;3.53;3.10;;;10.80;99.90;;;;;;5048056;28;20050;-72
2023/08/29 05:43:44;;;;;;;4.90;3.40;;;10.80;99.90;;;;;;5019354;28;20045;-71
2023/08/29 05:46:10;;;;;;;4.00;2.80;;;10.80;99.90;;;;;;5020874;28;20037;-73
2023/08/29 05:48:35;;;;;;;5.45;3.20;;;10.80;99.90;;;;;;5035941;28;20052;-72
2023/08/29 05:51:01;;;;;;;5.40;3.20;;;10.80;99.90;;;;;;5036228;28;20111;-72
2023/08/29 05:53:27;;;;;;;4.90;3.22;;;10.80;99.90;;;;;;5037095;28;20044;-72
2023/08/29 05:55:52;;;;;;;5.88;3.28;;;10.90;99.90;;;;;;5049508;28;20121;-72
2023/08/29 05:58:19;;;;;;;4.65;3.13;;;10.90;99.90;;;;;;5052866;28;20056;-72
2023/08/29 06:00:44;;;;;;;3.47;2.90;;;11.00;99.90;;;;;;5020155;28;20048;-72
2023/08/29 06:03:10;;;;;;;3.80;3.08;;;11.00;99.90;;;;;;5035653;28;20128;-71
2023/08/29 06:05:38;;;;;;;5.15;3.28;;;11.00;99.90;;;;;;5006109;28;20403;-71
2023/08/29 06:08:04;;;;;;;5.35;3.17;;;11.00;99.90;;;;;;5054054;28;20355;-72
2023/08/29 06:10:30;;;;;;;6.45;4.05;;;11.00;99.90;;;;;;5033855;28;20057;-71
2023/08/29 06:12:56;;;;;;;5.45;3.75;;;10.90;99.90;;;;;;5029496;28;20579;-70
2023/08/29 06:15:24;;;;;;;6.03;3.47;;;11.00;99.90;;;;;;5019177;28;20088;-71
2023/08/29 06:17:51;;;;;;;5.13;3.47;;;11.00;99.90;;;;;;5036278;28;20052;-71
2023/08/29 06:20:17;;;;;;;6.10;3.35;;;11.10;99.90;;;;;;5034664;28;20049;-70
2023/08/29 06:22:43;;;;;;;4.10;2.83;;;11.10;99.90;;;;;;5036238;28;20049;-70
2023/08/29 06:25:10;;;;;;;5.35;3.22;;;11.20;99.90;;;;;;5018358;28;20056;-70
2023/08/29 06:27:36;;;;;;;6.13;3.33;;;11.20;99.90;;;;;;5034855;28;20054;-71
2023/08/29 06:30:07;;;;;;;5.95;3.60;;;11.30;99.90;;;;;;5017756;28;20046;-71
2023/08/29 06:32:34;;;;;;;6.05;3.50;;;11.30;99.90;;;;;;5035064;28;20060;-72
2023/08/29 06:35:00;;;;;;;5.40;3.20;;;11.40;99.90;;;;;;5015816;28;20052;-72
2023/08/29 06:37:25;;;;;;;4.55;3.17;;;11.50;99.90;;;;;;5032978;28;20064;-72
2023/08/29 06:39:51;;;;;;;4.22;3.38;;;11.50;99.90;;;;;;5015225;28;20049;-72
2023/08/29 06:42:17;;;;;;;4.78;3.50;;;11.60;99.90;;;;;;5034502;28;20791;-72
2023/08/29 06:44:42;;;;;;;5.55;3.63;;;11.80;99.90;;;;;;5020894;28;20091;-71
2023/08/29 06:47:08;;;;;;;5.20;3.67;;;11.90;99.90;;;;;;5016595;28;20045;-71
2023/08/29 06:49:34;;;;;;;5.78;3.90;;;11.90;99.90;;;;;;5001078;28;20037;-72
2023/08/29 06:52:00;;;;;;;7.20;3.80;;;12.10;99.90;;;;;;5016675;28;20048;-72
2023/08/29 06:54:26;;;;;;;5.53;4.07;;;12.20;99.90;;;;;;5041536;28;20054;-72
2023/08/29 06:56:51;;;;;;;5.72;4.18;;;12.40;99.90;;;;;;5042008;28;20241;-71
2023/08/29 06:59:17;;;;;;;9.10;4.80;;;12.50;99.90;;;;;;5018236;28;20168;-72
2023/08/29 07:01:43;;;;;;;7.93;4.85;;;12.80;99.90;;;;;;5034509;28;20041;-71
2023/08/29 07:04:12;;;;;;;8.07;5.50;;;13.00;99.90;;;;;;4998168;28;20048;-72
2023/08/29 07:06:39;;;;;;;6.38;4.75;;;13.10;99.90;;;;;;5022883;28;20049;-72
2023/08/29 07:09:05;;;;;;;6.47;4.10;;;13.40;99.90;;;;;;5025010;28;20077;-71
2023/08/29 07:11:30;;;;;;;5.90;4.60;;;13.50;99.90;;;;;;5018544;28;20053;-72
2023/08/29 07:13:56;;;;;;;6.25;4.30;;;13.70;99.90;;;;;;5069094;28;20048;-72
2023/08/29 07:16:22;;;;;;;4.32;3.38;;;13.90;99.90;;;;;;5055845;28;20064;-73
2023/08/29 07:18:47;;;;;;;6.20;3.75;;;14.10;99.90;;;;;;5048247;28;20055;-71
2023/08/29 07:21:13;;;;;;;4.88;3.20;;;14.20;99.90;;;;;;5054161;28;20066;-72
2023/08/29 07:23:39;;;;;;;4.88;2.67;;;14.30;99.90;;;;;;5073326;28;20042;-72
2023/08/29 07:26:05;;;;;;;3.78;2.00;;;14.50;99.90;;;;;;5020305;28;20575;-72
2023/08/29 07:28:31;;;;;;;3.50;2.10;;;14.70;99.90;;;;;;5039189;28;20090;-72
2023/08/29 07:30:57;;;;;;;2.13;1.92;;;14.80;99.90;;;;;;5055174;28;20322;-72
2023/08/29 07:33:23;;;;;;;3.90;1.35;;;15.00;99.90;;;;;;5055961;28;20200;-72
2023/08/29 07:35:49;;;;;;;2.67;1.65;;;15.10;99.90;;;;;;5057505;28;20048;-71
2023/08/29 07:38:17;;;;;;;2.35;1.65;;;15.30;99.90;;;;;;5056750;28;20449;-72
2023/08/29 07:40:46;;;;;;;3.28;1.40;;;15.40;99.90;;;;;;5055303;28;20071;-72
2023/08/29 07:43:13;;;;;;;1.25;1.08;;;15.60;99.90;;;;;;5062487;28;20041;-72
2023/08/29 07:45:39;;;;;;;1.85;1.33;;;15.70;99.90;;;;;;5053151;28;20127;-72
2023/08/29 07:48:05;;;;;;;2.92;1.20;;;15.80;99.90;;;;;;5053692;28;20079;-72
2023/08/29 07:50:31;;;;;;;2.05;1.30;;;15.90;99.90;;;;;;5048574;28;20040;-72
2023/08/29 07:52:57;;;;;;;1.85;1.17;;;16.00;99.90;;;;;;5038979;28;20036;-72
2023/08/29 07:55:22;;;;;;;1.92;1.10;;;16.20;99.90;;;;;;5055556;28;20054;-72
2023/08/29 07:57:49;;;;;;;3.15;1.52;;;16.30;99.90;;;;;;5056663;28;20044;-71
2023/08/29 08:00:16;;;;;;;3.10;1.33;;;16.40;99.90;;;;;;5028565;28;20041;-72
2023/08/29 08:02:41;;;;;;;1.63;1.10;;;16.50;99.90;;;;;;5056879;28;20052;-72
2023/08/29 08:05:16;;;;;;;3.50;1.35;;;16.60;99.90;;;;;;5039104;28;20049;-72
2023/08/29 08:07:43;;;;;;;3.72;1.10;;;16.70;99.90;;;;;;5079358;28;20041;-72
2023/08/29 08:10:11;;;;;;;1.80;1.10;;;16.70;99.90;;;;;;5060428;28;20040;-72
2023/08/29 08:12:38;;;;;;;2.28;1.17;;;16.80;99.90;;;;;;5049719;28;20065;-72
2023/08/29 08:15:05;;;;;;;1.00;0.90;;;16.80;99.90;;;;;;5059025;28;20118;-71
2023/08/29 08:17:32;;;;;;;2.60;0.95;;;16.80;99.90;;;;;;5046002;28;20073;-72
2023/08/29 08:19:57;;;;;;;3.40;0.90;;;16.80;99.90;;;;;;5044541;28;20033;-72
2023/08/29 08:22:23;;;;;;;3.58;1.00;;;16.80;99.90;;;;;;5041369;28;20056;-71
2023/08/29 08:24:49;;;;;;;1.73;0.90;;;16.80;99.90;;;;;;5043623;28;20041;-72
2023/08/29 08:27:15;;;;;;;5.57;1.00;;;16.80;99.90;;;;;;5047554;28;20048;-71
2023/08/29 08:29:42;;;;;;;1.35;1.00;;;16.90;99.90;;;;;;5046078;28;20045;-72
2023/08/29 08:32:08;;;;;;;1.05;0.73;;;16.90;99.90;;;;;;5024841;28;20045;-71
2023/08/29 08:34:34;;;;;;;1.58;1.02;;;17.00;99.90;;;;;;5009742;28;20112;-72
2023/08/29 08:37:00;;;;;;;2.17;0.80;;;17.00;99.90;;;;;;5037421;28;20077;-72
2023/08/29 08:39:25;;;;;;;1.70;0.80;;;17.00;99.90;;;;;;5012430;28;20045;-72
2023/08/29 08:41:52;;;;;;;3.45;1.10;;;17.00;99.90;;;;;;5027376;28;20109;-72
2023/08/29 08:44:21;;;;;;;1.58;0.60;;;17.10;99.90;;;;;;5044428;28;20076;-72
2023/08/29 08:46:47;;;;;;;1.77;0.70;;;17.10;99.90;;;;;;5047970;28;20082;-72
2023/08/29 08:49:13;;;;;;;1.60;0.80;;;17.10;99.90;;;;;;5024790;28;20510;-71
2023/08/29 08:51:40;;;;;;;1.70;0.90;;;17.20;99.90;;;;;;5040611;28;20060;-71
2023/08/29 08:54:10;;;;;;;2.20;0.80;;;17.20;99.90;;;;;;5027165;28;20495;-72
2023/08/29 08:56:38;;;;;;;2.03;0.80;;;17.20;99.90;;;;;;5041632;28;20049;-71
2023/08/29 08:59:04;;;;;;;2.28;0.90;;;17.30;99.90;;;;;;5025528;28;20077;-72
2023/08/29 09:01:30;;;;;;;1.63;0.90;;;17.30;99.90;;;;;;5026852;28;20056;-71
2023/08/29 09:03:56;;;;;;;2.47;0.98;;;17.40;99.90;;;;;;5039452;28;20041;-72
2023/08/29 09:06:22;;;;;;;2.17;1.00;;;17.40;99.90;;;;;;5039544;28;20049;-72
2023/08/29 09:08:48;;;;;;;2.00;0.93;;;17.50;99.90;;;;;;5046619;28;20042;-72
2023/08/29 09:11:18;;;;;;;3.13;0.98;;;17.50;99.90;;;;;;5036387;28;20046;-72
2023/08/29 09:13:50;;;;;;;1.42;1.00;;;17.50;99.90;;;;;;5029834;28;20050;-72
2023/08/29 09:16:16;;;;;;;;;;;17.60;99.90;;;;;;5029927;28;20097;-72
2023/08/29 09:18:49;;;;;;;0.95;0.82;;;17.50;99.90;;;;;;5046496;28;19972;-72
2023/08/29 09:21:16;;;;;;;2.58;0.90;;;17.50;99.90;;;;;;5047773;28;20037;-71
2023/08/29 09:23:42;;;;;;;2.13;1.17;;;17.60;99.90;;;;;;5046506;28;20089;-72
2023/08/29 09:26:11;;;;;;;2.63;1.10;;;17.70;99.90;;;;;;5035062;28;20663;-72
2023/08/29 09:28:38;;;;;;;2.25;1.10;;;17.70;99.90;;;;;;5017920;28;20072;-72
2023/08/29 09:31:05;;;;;;;1.58;1.30;;;17.80;99.90;;;;;;5036762;28;20540;-71
2023/08/29 09:33:32;;;;;;;1.92;1.30;;;17.90;99.90;;;;;;5035525;28;20049;-71
2023/08/29 09:36:01;;;;;;;2.67;1.50;;;18.00;99.90;;;;;;5056575;28;20052;-72
2023/08/29 09:38:35;;;;;;;3.13;1.00;;;18.00;99.90;;;;;;5037933;28;20045;-71
2023/08/29 09:41:01;;;;;;;3.55;1.55;;;18.10;99.90;;;;;;5037883;28;20507;-72
2023/08/29 09:43:28;;;;;;;2.33;1.50;;;18.10;99.90;;;;;;5032523;28;20053;-72
2023/08/29 09:45:54;;;;;;;2.15;1.40;;;18.10;99.90;;;;;;5032396;28;20487;-71
2023/08/29 09:48:20;;;;;;;1.52;1.10;;;18.10;99.90;;;;;;5032011;28;20046;-71
2023/08/29 09:50:48;;;;;;;3.88;1.50;;;18.00;99.90;;;;;;5034731;28;20081;-71
2023/08/29 09:53:16;;;;;;;1.38;1.20;;;18.00;99.90;;;;;;5030012;28;20051;-71
2023/08/29 09:55:48;;;;;;;1.67;1.20;;;17.90;99.90;;;;;;5030604;28;20041;-72
2023/08/29 09:58:16;;;;;;;2.13;1.40;;;18.00;99.90;;;;;;5035898;28;20045;-71
2023/08/29 10:00:43;;;;;;;1.58;1.10;;;18.00;99.90;;;;;;5033657;28;20037;-71
2023/08/29 10:03:10;;;;;;;1.33;1.10;;;18.10;99.90;;;;;;5036572;28;20045;-86
2023/08/29 10:05:39;;;;;;;2.08;1.10;;;18.10;99.90;;;;;;4997533;28;20037;-84
2023/08/29 10:08:11;;;;;;;1.80;1.70;;;18.20;99.90;;;;;;5050042;23;20059;-72
2023/08/29 10:10:40;;;;;;;1.42;1.20;;;18.20;99.90;;;;;;5051249;28;20840;-71
2023/08/29 10:13:08;;;;;;;3.65;1.40;;;18.30;99.90;;;;;;5028960;28;20048;-72
2023/08/29 10:15:34;;;;;;;1.92;1.55;;;18.30;99.90;;;;;;5055437;28;20045;-72
2023/08/29 10:18:00;;;;;;;2.58;1.35;;;18.30;99.90;;;;;;5060989;28;20102;-72
2023/08/29 10:20:26;;;;;;;2.65;1.40;;;18.30;99.90;;;;;;5057454;28;20524;-72
2023/08/29 10:22:53;;;;;;;2.45;1.10;;;18.30;99.90;;;;;;5062853;28;20516;-72
2023/08/29 10:25:21;;;;;;;3.13;1.17;;;18.20;99.90;;;;;;5044734;28;20045;-72
2023/08/29 10:27:48;;;;;;;2.13;1.60;;;18.10;99.90;;;;;;5064891;28;20060;-72
2023/08/29 10:30:14;;;;;;;3.35;1.20;;;18.10;99.90;;;;;;5060879;28;20044;-71
2023/08/29 10:32:43;;;;;;;1.33;1.23;;;18.00;99.90;;;;;;5059571;28;20041;-72
2023/08/29 10:35:19;;;;;;;1.67;1.30;;;17.90;99.90;;;;;;5051848;28;20083;-72
2023/08/29 10:37:49;;;;;;;1.40;1.30;;;17.90;99.90;;;;;;5061725;28;20056;-72
2023/08/29 10:40:15;;;;;;;2.92;1.33;;;17.80;99.90;;;;;;5067676;28;20033;-72
2023/08/29 10:42:57;;;;;;;2.20;1.15;;;17.80;99.90;;;;;;5033666;28;20063;-72
2023/08/29 10:45:48;;;;;;;1.85;1.30;;;17.80;99.90;;;;;;5075350;28;20112;-72
2023/08/29 10:48:18;;;;;;;1.48;1.00;;;17.80;99.90;;;;;;5054540;28;20108;-72
2023/08/29 10:51:08;;;;;;;1.45;1.00;;;17.90;99.90;;;;;;5044018;28;20057;-72
2023/08/29 10:53:54;;;;;;;2.95;1.08;;;17.90;99.90;;;;;;5058596;28;20044;-71
2023/08/29 10:56:24;;;;;;;0.90;0.90;;;17.90;99.90;;;;;;5061074;28;20458;-71
2023/08/29 10:58:50;;;;;;;1.23;1.00;;;17.90;99.90;;;;;;5063236;28;20049;-72
2023/08/29 11:01:28;;;;;;;1.92;0.90;;;17.90;99.90;;;;;;5064385;28;20423;-72
2023/08/29 11:03:56;;;;;;;1.77;0.93;;;17.90;99.90;;;;;;5064911;28;20048;-71
2023/08/29 11:06:48;;;;;;;2.90;1.17;;;17.90;99.90;;;;;;5061524;28;20055;-71
2023/08/29 11:09:25;;;;;;;1.92;1.42;;;17.90;99.90;;;;;;5059468;28;20057;-72
2023/08/29 11:12:14;;;;;;;1.10;1.00;;;18.00;99.90;;;;;;5037324;28;20136;-72
2023/08/29 11:15:00;;;;;;;2.47;1.30;;;18.00;99.90;;;;;;5052226;28;20048;-72
2023/08/29 11:17:26;;;;;;;2.60;1.27;;;18.00;99.90;;;;;;5051968;28;20076;-71
2023/08/29 11:19:56;;;;;;;1.52;1.10;;;18.00;99.90;;;;;;5056693;28;20045;-72
2023/08/29 11:22:25;;;;;;;2.10;1.17;;;18.00;99.90;;;;;;5062586;28;20408;-71
2023/08/29 11:24:55;;;;;;;1.90;1.23;;;18.00;99.90;;;;;;5058412;28;20167;-71
2023/08/29 11:27:31;;;;;;;2.03;1.20;;;18.00;99.90;;;;;;5061249;28;20056;-71
2023/08/29 11:30:00;;;;;;;1.55;1.02;;;18.10;99.90;;;;;;5057208;28;20045;-71
2023/08/29 11:32:28;;;;;;;1.00;0.90;;;18.10;99.90;;;;;;5056795;28;20045;-71
2023/08/29 11:34:54;;;;;;;1.55;1.23;;;18.20;99.90;;;;;;5067187;28;20045;-71
2023/08/29 11:37:23;;;;;;;2.05;1.30;;;18.20;99.90;;;;;;5056002;28;20104;-72
2023/08/29 11:39:58;;;;;;;2.33;1.50;;;18.30;99.90;;;;;;5056276;28;20076;-71
2023/08/29 11:42:28;;;;;;;2.28;1.40;;;18.30;99.90;;;;;;5065945;28;20052;-71
2023/08/29 11:44:54;;;;;;;2.28;1.80;;;18.30;99.90;;;;;;5056494;28;20037;-71
2023/08/29 11:47:21;;;;;;;1.38;1.23;;;18.30;99.90;;;;;;5056721;28;20056;-71
2023/08/29 11:49:49;;;;;;;2.42;1.30;;;18.30;99.90;;;;;;5056964;28;20215;-71
2023/08/29 11:52:16;;;;;;;1.30;1.20;;;18.30;99.90;;;;;;5058165;28;20051;-71
2023/08/29 11:54:50;;;;;;;1.63;1.00;;;18.40;99.90;;;;;;5055490;28;20045;-71
2023/08/29 11:57:16;;;;;;;1.25;1.00;;;18.40;99.90;;;;;;5073040;28;20403;-71
2023/08/29 11:59:44;;;;;;;2.58;1.23;;;18.40;99.90;;;;;;5041428;28;20079;-71
2023/08/29 12:02:15;;;;;;;2.20;1.10;;;18.40;99.90;;;;;;5057534;28;20045;-71
2023/08/29 12:04:42;;;;;;;1.33;1.20;;;18.50;99.90;;;;;;5039336;28;20160;-72
2023/08/29 12:07:11;;;;;;;2.33;1.20;;;18.60;99.90;;;;;;5053057;28;20045;-71
2023/08/29 12:09:39;;;;;;;1.50;1.40;;;18.70;99.90;;;;;;5056297;28;20065;-71
2023/08/29 12:12:07;;;;;;;2.35;1.10;;;18.90;99.90;;;;;;5040919;28;20041;-71
2023/08/29 12:14:50;;;;;;;2.17;1.27;;;19.30;99.90;;;;;;5041405;28;20052;-72
2023/08/29 12:17:16;;;;;;;2.47;1.20;;;19.60;99.90;;;;;;5038064;28;20050;-71
2023/08/29 12:19:42;;;;;;;1.98;1.05;;;19.70;99.90;;;;;;5051922;28;20059;-71
2023/08/29 12:22:07;;;;;;;1.02;0.90;;;19.70;99.90;;;;;;5022314;28;20040;-71
2023/08/29 12:24:33;;;;;;;1.15;1.00;;;19.60;99.90;;;;;;5056754;28;20036;-71
2023/08/29 12:26:59;;;;;;;1.10;0.80;;;19.60;99.90;;;;;;5056167;28;20105;-71
2023/08/29 12:29:25;;;;;;;1.23;1.10;;;19.50;99.90;;;;;;5053079;28;20128;-71
2023/08/29 12:31:50;;;;;;;3.10;1.10;;;19.50;99.90;;;;;;5059444;28;20045;-72
2023/08/29 12:34:16;;;;;;;1.83;1.30;;;19.40;99.90;;;;;;5048800;28;20097;-71
2023/08/29 12:36:42;;;;;;;1.25;0.93;;;19.30;99.90;;;;;;5025579;28;20424;-71
2023/08/29 12:39:08;;;;;;;1.17;1.08;;;19.30;99.90;;;;;;5060690;28;20044;-71
2023/08/29 12:41:36;;;;;;;1.88;1.10;;;19.20;99.90;;;;;;5054471;28;20156;-71
2023/08/29 12:44:03;;;;;;;1.73;1.30;;;19.20;99.90;;;;;;5057518;28;20048;-71
2023/08/29 12:46:30;;;;;;;1.50;1.00;;;19.10;99.90;;;;;;5054603;28;20061;-71
2023/08/29 12:48:56;;;;;;;1.80;1.15;;;19.00;99.90;;;;;;5072556;28;20099;-72